D/T METAR WX W/DIR W/SPE G/SPE TEMP DEWP
23/05/19 13:50 EGOP 231250Z 23012KT 9999 FEW030 SCT110 15/09 Q1017 BLU SW (230°) 13.8mph 15°C 9°C
23/05/19 12:50 EGOP 231150Z 22009KT 9999 FEW025 SCT120 16/07 Q1017 BLU SW (220°) 10.4mph 16°C 7°C
23/05/19 11:50 EGOP 231050Z 23007KT 9999 FEW030 SCT130 15/07 Q1017 BLU SW (230°) 8.1mph 15°C 7°C
23/05/19 10:50 EGOP 230950Z 21004KT 9999 FEW020 SCT150 14/08 Q1017 BLU SSW (210°) 4.6mph 14°C 8°C
23/05/19 09:50 EGOP 230850Z 26003KT CAVOK 14/07 Q1017 BLU W (260°) 3.5mph 14°C 7°C
23/05/19 08:50 EGOP 230750Z 04003KT CAVOK 15/05 Q1017 BLU NE (40°) 3.5mph 15°C 5°C
23/05/19 07:50 EGOP 230650Z AUTO 07001KT 9000 // FEW140/// 11/07 Q1017 ENE (70°) 1.2mph 11°C 7°C
23/05/19 06:50 EGOP 230550Z AUTO 07004KT 9999 // NCD 07/06 Q1017 ENE (70°) 4.6mph 7°C 6°C
23/05/19 05:50 EGOP 230450Z AUTO 06003KT 9999 // NCD 04/04 Q1017 ENE (60°) 3.5mph 4°C 4°C
23/05/19 04:50 EGOP 230350Z AUTO 04003KT 9999 // FEW210/// 03/01 Q1017 NE (40°) 3.5mph 3°C 1°C
23/05/19 03:50 EGOP 230250Z AUTO 04003KT 9999 // BKN200/// 04/03 Q1017 NE (40°) 3.5mph 4°C 3°C
23/05/19 02:50 EGOP 230150Z AUTO 05005KT 9999 // FEW180/// 04/03 Q1017 NE (50°) 5.8mph 4°C 3°C
23/05/19 01:50 EGOP 230050Z AUTO 08004KT 9999 // NCD 05/03 Q1018 E (80°) 4.6mph 5°C 3°C
23/05/19 00:50 EGOP 222350Z AUTO 04003KT 9999 // NCD 06/03 Q1018 NE (40°) 3.5mph 6°C 3°C
22/05/19 23:50 EGOP 222250Z AUTO 04004KT 9999 // NCD 08/05 Q1018 NE (40°) 4.6mph 8°C 5°C
22/05/19 22:50 EGOP 222150Z AUTO 33006KT 9999 // NCD 10/05 Q1018 NNW (330°) 6.9mph 10°C 5°C
22/05/19 21:50 EGOP 222050Z AUTO 31007KT 9999 // NCD 13/06 Q1018 NW (310°) 8.1mph 13°C 6°C
22/05/19 20:50 EGOP 221950Z AUTO 29007KT 9999 // NCD 15/07 Q1018 WNW (290°) 8.1mph 15°C 7°C
22/05/19 19:50 EGOP 221850Z AUTO 24008KT 9999 // NCD 15/10 Q1018 WSW (240°) 9.2mph 15°C 10°C
22/05/19 18:50 EGOP 221750Z AUTO 22009KT 9999 // NCD 15/10 Q1018 SW (220°) 10.4mph 15°C 10°C
22/05/19 17:50 EGOP 221650Z AUTO 25007KT 9999 // FEW150/// 16/07 Q1019 WSW (250°) 8.1mph 16°C 7°C
22/05/19 16:50 EGOP 221550Z AUTO 24008KT 9999 // NCD 16/06 Q1019 WSW (240°) 9.2mph 16°C 6°C
22/05/19 14:50 EGOP 221350Z 21012KT 9999 FEW020 SCT140 16/10 Q1020 BLU SSW (210°) 13.8mph 16°C 10°C
22/05/19 13:50 EGOP 221250Z 22009KT 9999 FEW020 SCT150 16/11 Q1020 BLU SW (220°) 10.4mph 16°C 11°C
22/05/19 12:50 EGOP 221150Z 23008KT 9999 FEW016 SCT140 15/11 Q1020 BLU SW (230°) 9.2mph 15°C 11°C
22/05/19 11:50 EGOP 221050Z 24006KT 9999 FEW016 SCT150 14/10 Q1020 BLU WSW (240°) 6.9mph 14°C 10°C
22/05/19 10:50 EGOP 220950Z 21004KT 9999 FEW016 SCT150 13/10 Q1020 BLU SSW (210°) 4.6mph 13°C 10°C
22/05/19 09:50 EGOP 220850Z 23004KT CAVOK 13/09 Q1021 BLU SW (230°) 4.6mph 13°C 9°C
22/05/19 08:50 EGOP 220750Z 29002KT CAVOK 12/07 Q1021 BLU WNW (290°) 2.3mph 12°C 7°C
22/05/19 07:50 EGOP 220650Z AUTO 04001KT 9999 // NCD 09/08 Q1021 NE (40°) 1.2mph 9°C 8°C
22/05/19 06:50 EGOP 220550Z AUTO 05004KT 9999 // SCT160/// 06/05 Q1020 NE (50°) 4.6mph 6°C 5°C
22/05/19 05:50 EGOP 220450Z AUTO 02003KT 9999 // BKN160/// 03/02 Q1020 NNE (20°) 3.5mph 3°C 2°C
22/05/19 04:50 EGOP 220350Z AUTO 07002KT 9999 // SCT160/// 03/02 Q1020 ENE (70°) 2.3mph 3°C 2°C
22/05/19 03:50 EGOP 220250Z AUTO 05005KT 9999 // BKN160/// 04/03 Q1020 NE (50°) 5.8mph 4°C 3°C
22/05/19 02:50 EGOP 220150Z AUTO 07004KT 9999 // FEW170/// 03/02 Q1021 ENE (70°) 4.6mph 3°C 2°C
22/05/19 01:50 EGOP 220050Z AUTO 03003KT 9999 // BKN160/// 06/04 Q1021 NNE (30°) 3.5mph 6°C 4°C
22/05/19 00:50 EGOP 212350Z AUTO 03004KT 9999 // FEW180/// 06/04 Q1021 NNE (30°) 4.6mph 6°C 4°C
21/05/19 23:50 EGOP 212250Z AUTO 01007KT 9999 // SCT170/// 07/05 Q1021 N (10°) 8.1mph 7°C 5°C
21/05/19 22:50 EGOP 212150Z AUTO 01004KT 9999 // FEW190/// 08/05 Q1021 N (10°) 4.6mph 8°C 5°C
21/05/19 21:50 EGOP 212050Z AUTO 01005KT 9999 // NCD 10/06 Q1021 N (10°) 5.8mph 10°C 6°C
21/05/19 20:50 EGOP 211950Z AUTO 27003KT 9999 // NCD 12/08 Q1021 W (270°) 3.5mph 12°C 8°C
21/05/19 19:50 EGOP 211850Z AUTO 26005KT 9999 // FEW060/// 16/09 Q1020 W (260°) 5.8mph 16°C 9°C
21/05/19 18:50 EGOP 211750Z AUTO 28004KT 9999 // FEW060/// 16/07 Q1020 W (280°) 4.6mph 16°C 7°C
21/05/19 17:50 EGOP 211650Z AUTO 26008KT 9999 // FEW060/// 16/11 Q1020 W (260°) 9.2mph 16°C 11°C
21/05/19 16:50 EGOP 211550Z AUTO 25014KT 9999 // FEW060/// 16/11 Q1020 WSW (250°) 16.1mph 16°C 11°C
21/05/19 15:50 EGOP 211450Z 25018KT CAVOK 16/10 Q1020 BLU WSW (250°) 20.7mph 16°C 10°C
21/05/19 14:50 EGOP 211350Z 25017KT CAVOK 16/10 Q1020 BLU WSW (250°) 19.6mph 16°C 10°C
21/05/19 13:50 EGOP 211250Z 25014KT CAVOK 16/10 Q1020 BLU WSW (250°) 16.1mph 16°C 10°C